Time;durP1;ratioP1;P1;durP2;ratioP2;P2;SDS_P1;SDS_P2;PMS_P1;PMS_P2;Temp;Humidity;BMP_temperature;BMP_pressure;BME280_temperature;BME280_humidity;BME280_pressure;Samples;Min_cycle;Max_cycle;Signal;HPM_P1;HPM_P2
2021/03/10 00:00:58;;;;;;;58.42;33.55;;;;;;;;;;4973622;28;20287;-79
2021/03/10 00:03:23;;;;;;;56.27;32.97;;;;;;;;;;4971886;28;20026;-79
2021/03/10 00:05:48;;;;;;;60.00;33.83;;;;;;;;;;4972996;28;20145;-79
2021/03/10 00:08:13;;;;;;;62.40;33.07;;;;;;;;;;4968108;28;20276;-79
2021/03/10 00:10:39;;;;;;;49.85;29.75;;;;;;;;;;4953663;28;20026;-80
2021/03/10 00:13:04;;;;;;;50.37;30.67;;;;;;;;;;4955540;28;20027;-80
2021/03/10 00:15:29;;;;;;;52.40;28.98;;;;;;;;;;4971916;28;20018;-80
2021/03/10 00:17:55;;;;;;;47.55;29.20;;;;;;;;;;4973292;28;20531;-80
2021/03/10 00:20:20;;;;;;;54.00;30.00;;;;;;;;;;4973535;28;20030;-80
2021/03/10 00:22:45;;;;;;;53.22;29.27;;;;;;;;;;4973770;28;20129;-80
2021/03/10 00:25:11;;;;;;;51.05;28.85;;;;;;;;;;4972781;28;20033;-81
2021/03/10 00:27:36;;;;;;;47.88;28.05;;;;;;;;;;4972936;28;20074;-81
2021/03/10 00:30:03;;;;;;;52.42;29.23;;;;;;;;;;4971943;28;20030;-81
2021/03/10 00:32:28;;;;;;;62.28;30.77;;;;;;;;;;4978525;28;20031;-81
2021/03/10 00:34:54;;;;;;;57.65;29.90;;;;;;;;;;4974841;28;20082;-81
2021/03/10 00:37:20;;;;;;;48.67;29.02;;;;;;;;;;4975078;28;20022;-81
2021/03/10 00:39:46;;;;;;;49.22;28.25;;;;;;;;;;4954752;28;20030;-79
2021/03/10 00:42:11;;;;;;;52.92;28.70;;;;;;;;;;4954506;28;20042;-80
2021/03/10 00:44:37;;;;;;;49.20;26.35;;;;;;;;;;4965651;28;20031;-81
2021/03/10 00:47:02;;;;;;;50.50;27.90;;;;;;;;;;4979200;28;20035;-81
2021/03/10 00:49:27;;;;;;;51.80;27.75;;;;;;;;;;4953787;28;20039;-81
2021/03/10 00:51:52;;;;;;;56.00;29.33;;;;;;;;;;4974150;28;20475;-79
2021/03/10 00:54:18;;;;;;;48.27;29.03;;;;;;;;;;4969836;28;20026;-80
2021/03/10 00:56:43;;;;;;;52.53;27.53;;;;;;;;;;4977263;28;20294;-80
2021/03/10 00:59:08;;;;;;;50.80;28.87;;;;;;;;;;4977020;28;20265;-81
2021/03/10 01:01:33;;;;;;;58.80;30.17;;;;;;;;;;4969788;28;20280;-81
2021/03/10 01:03:58;;;;;;;48.73;30.30;;;;;;;;;;4956683;28;20606;-81
2021/03/10 01:06:25;;;;;;;51.50;30.40;;;;;;;;;;4963802;28;20257;-82
2021/03/10 01:08:50;;;;;;;58.20;31.73;;;;;;;;;;4968449;28;21112;-80
2021/03/10 01:11:15;;;;;;;55.38;29.70;;;;;;;;;;4972633;28;20019;-79
2021/03/10 01:13:41;;;;;;;63.73;31.27;;;;;;;;;;4977647;28;20037;-79
2021/03/10 01:16:06;;;;;;;59.57;29.60;;;;;;;;;;4952514;28;20268;-80
2021/03/10 01:18:31;;;;;;;51.47;29.60;;;;;;;;;;4962111;28;20800;-81
2021/03/10 01:20:56;;;;;;;54.53;29.03;;;;;;;;;;4977315;28;20605;-81
2021/03/10 01:23:21;;;;;;;46.53;28.90;;;;;;;;;;4973501;28;20275;-79
2021/03/10 01:25:47;;;;;;;58.33;29.93;;;;;;;;;;4977540;28;20268;-80
2021/03/10 01:28:12;;;;;;;58.83;31.00;;;;;;;;;;4974713;28;20027;-81
2021/03/10 01:30:37;;;;;;;52.07;28.60;;;;;;;;;;4979333;28;20035;-80
2021/03/10 01:33:02;;;;;;;53.67;29.17;;;;;;;;;;4982004;28;20260;-81
2021/03/10 01:35:28;;;;;;;55.63;28.48;;;;;;;;;;4973942;28;20464;-81
2021/03/10 01:37:53;;;;;;;51.83;28.02;;;;;;;;;;4980837;28;20109;-80
2021/03/10 01:40:19;;;;;;;56.00;29.98;;;;;;;;;;4958817;28;20026;-80
2021/03/10 01:42:44;;;;;;;52.88;29.30;;;;;;;;;;4950409;28;20019;-80
2021/03/10 01:45:10;;;;;;;57.23;29.37;;;;;;;;;;4966192;28;20469;-81
2021/03/10 01:47:38;;;;;;;59.13;30.13;;;;;;;;;;4968837;28;20277;-79
2021/03/10 01:50:03;;;;;;;54.20;30.88;;;;;;;;;;4966189;28;20034;-80
2021/03/10 01:52:29;;;;;;;60.55;29.35;;;;;;;;;;4977149;28;20033;-81
2021/03/10 01:54:54;;;;;;;57.77;31.23;;;;;;;;;;4976091;28;20102;-81
2021/03/10 01:57:19;;;;;;;58.47;30.10;;;;;;;;;;4960643;28;20037;-81
2021/03/10 01:59:45;;;;;;;58.30;31.20;;;;;;;;;;4973156;28;20105;-82
2021/03/10 02:02:10;;;;;;;57.65;28.48;;;;;;;;;;4971663;28;20272;-81
2021/03/10 02:04:36;;;;;;;58.00;30.65;;;;;;;;;;4956079;28;20027;-80
2021/03/10 02:07:09;;;;;;;46.00;26.00;;;;;;;;;;4967078;28;20023;-80
2021/03/10 02:09:41;;;;;;;56.22;28.60;;;;;;;;;;4956493;28;20022;-80
2021/03/10 02:12:23;;;;;;;55.08;27.42;;;;;;;;;;4970641;28;20427;-81
2021/03/10 02:15:07;;;;;;;51.58;28.15;;;;;;;;;;4973495;28;20373;-80
2021/03/10 02:17:36;;;;;;;50.85;26.40;;;;;;;;;;4962486;28;20026;-81
2021/03/10 02:20:04;;;;;;;56.00;28.05;;;;;;;;;;4974724;28;20027;-82
2021/03/10 02:22:52;;;;;;;59.38;28.42;;;;;;;;;;4975971;28;20364;-82
2021/03/10 02:25:36;;;;;;;50.55;27.13;;;;;;;;;;4981890;28;20080;-81
2021/03/10 02:28:02;;;;;;;51.83;26.48;;;;;;;;;;4963819;28;20030;-81
2021/03/10 02:30:29;;;;;;;52.28;27.40;;;;;;;;;;4970459;28;20625;-82
2021/03/10 02:33:14;;;;;;;52.83;28.60;;;;;;;;;;4955681;28;20023;-81
2021/03/10 02:35:41;;;;;;;57.53;27.73;;;;;;;;;;4977176;28;20081;-80
2021/03/10 02:38:07;;;;;;;55.92;30.27;;;;;;;;;;4966111;28;20027;-80
2021/03/10 02:40:35;;;;;;;61.08;31.75;;;;;;;;;;4974371;28;20036;-81
2021/03/10 02:43:00;;;;;;;55.58;29.52;;;;;;;;;;4970013;28;20028;-80
2021/03/10 02:45:26;;;;;;;64.72;30.65;;;;;;;;;;4975648;28;20534;-79
2021/03/10 02:47:52;;;;;;;59.45;31.15;;;;;;;;;;4953575;28;20163;-80
2021/03/10 02:50:17;;;;;;;62.75;32.90;;;;;;;;;;4969441;28;20039;-81
2021/03/10 02:52:43;;;;;;;66.13;32.08;;;;;;;;;;4973889;28;20066;-81
2021/03/10 02:55:09;;;;;;;64.80;31.88;;;;;;;;;;4972213;28;20019;-81
2021/03/10 02:57:34;;;;;;;72.10;32.92;;;;;;;;;;4977837;28;20018;-80
2021/03/10 03:00:03;;;;;;;65.22;32.22;;;;;;;;;;4972416;28;20041;-81
2021/03/10 03:02:28;;;;;;;64.85;34.15;;;;;;;;;;4953821;28;20035;-81
2021/03/10 03:04:53;;;;;;;67.05;32.97;;;;;;;;;;4972543;28;20039;-81
2021/03/10 03:07:19;;;;;;;65.97;35.00;;;;;;;;;;4971072;28;20032;-80
2021/03/10 03:09:44;;;;;;;67.13;35.72;;;;;;;;;;4969356;28;20023;-82
2021/03/10 03:12:10;;;;;;;73.07;36.75;;;;;;;;;;4970255;28;20381;-81
2021/03/10 03:14:38;;;;;;;70.97;35.30;;;;;;;;;;4964744;28;20395;-82
2021/03/10 03:17:03;;;;;;;82.18;40.08;;;;;;;;;;4958476;28;20015;-83
2021/03/10 03:19:28;;;;;;;87.78;41.97;;;;;;;;;;4974357;28;20031;-80
2021/03/10 03:21:54;;;;;;;84.17;39.53;;;;;;;;;;4976408;28;20368;-81
2021/03/10 03:24:19;;;;;;;76.43;39.53;;;;;;;;;;4959798;28;20276;-81
2021/03/10 03:26:46;;;;;;;73.93;37.85;;;;;;;;;;4975767;28;20027;-81
2021/03/10 03:29:12;;;;;;;82.05;39.78;;;;;;;;;;4959385;29;20027;-81
2021/03/10 03:31:38;;;;;;;92.18;44.65;;;;;;;;;;4977145;28;20107;-81
2021/03/10 03:34:05;;;;;;;81.35;42.25;;;;;;;;;;4976679;28;20056;-81
2021/03/10 03:36:30;;;;;;;78.25;41.00;;;;;;;;;;4975951;28;20341;-81
2021/03/10 03:38:56;;;;;;;81.25;42.00;;;;;;;;;;4979568;28;20038;-80
2021/03/10 03:41:21;;;;;;;84.75;43.05;;;;;;;;;;4975168;28;20035;-80
2021/03/10 03:43:46;;;;;;;83.40;41.55;;;;;;;;;;4977715;28;20023;-80
2021/03/10 03:46:12;;;;;;;76.32;41.38;;;;;;;;;;4977220;28;20742;-81
2021/03/10 03:48:37;;;;;;;80.07;40.67;;;;;;;;;;4976280;28;20065;-80
2021/03/10 03:51:06;;;;;;;69.95;39.60;;;;;;;;;;4962637;28;20087;-81
2021/03/10 03:53:31;;;;;;;70.72;37.88;;;;;;;;;;4958019;28;20031;-83
2021/03/10 03:55:56;;;;;;;75.20;41.13;;;;;;;;;;4972867;28;20433;-81
2021/03/10 03:58:21;;;;;;;72.13;41.17;;;;;;;;;;4976397;28;20265;-79
2021/03/10 04:00:46;;;;;;;71.95;39.90;;;;;;;;;;4961640;28;20034;-80
2021/03/10 04:03:11;;;;;;;72.27;40.10;;;;;;;;;;4975340;28;20037;-80
2021/03/10 04:05:37;;;;;;;68.90;37.75;;;;;;;;;;4968549;28;20015;-80
2021/03/10 04:08:02;;;;;;;72.93;39.20;;;;;;;;;;4976494;28;20422;-81
2021/03/10 04:10:28;;;;;;;76.33;40.13;;;;;;;;;;4975706;28;20114;-80
2021/03/10 04:12:54;;;;;;;64.13;37.58;;;;;;;;;;4969561;28;20272;-80
2021/03/10 04:15:20;;;;;;;67.25;38.58;;;;;;;;;;4968560;28;20101;-81
2021/03/10 04:17:45;;;;;;;64.20;37.00;;;;;;;;;;4971615;28;20031;-80
2021/03/10 04:20:12;;;;;;;67.40;37.05;;;;;;;;;;4970058;28;20059;-81
2021/03/10 04:22:37;;;;;;;69.25;36.58;;;;;;;;;;4975098;28;20027;-79
2021/03/10 04:25:03;;;;;;;70.28;36.10;;;;;;;;;;4975692;28;20535;-81
2021/03/10 04:27:29;;;;;;;65.35;37.15;;;;;;;;;;4974957;28;20030;-81
2021/03/10 04:29:54;;;;;;;63.37;37.67;;;;;;;;;;4975045;28;20030;-81
2021/03/10 04:32:19;;;;;;;66.18;37.75;;;;;;;;;;4958697;28;20275;-81
2021/03/10 04:34:44;;;;;;;65.83;36.47;;;;;;;;;;4960858;28;20034;-79
2021/03/10 04:37:09;;;;;;;64.45;36.60;;;;;;;;;;4977786;28;20027;-82
2021/03/10 04:39:35;;;;;;;63.80;34.93;;;;;;;;;;4978641;28;20031;-82
2021/03/10 04:42:00;;;;;;;65.22;35.17;;;;;;;;;;4977130;28;20269;-81
2021/03/10 04:44:25;;;;;;;57.80;34.85;;;;;;;;;;4963916;28;20030;-82
2021/03/10 04:46:51;;;;;;;67.15;35.25;;;;;;;;;;4980812;28;20023;-82
2021/03/10 04:49:16;;;;;;;60.27;33.63;;;;;;;;;;4969733;28;20113;-81
2021/03/10 04:51:41;;;;;;;59.60;34.90;;;;;;;;;;4977810;28;20315;-80
2021/03/10 04:54:06;;;;;;;60.00;33.63;;;;;;;;;;4945910;28;20315;-81
2021/03/10 04:56:31;;;;;;;59.23;33.83;;;;;;;;;;4953810;28;20269;-81
2021/03/10 04:58:57;;;;;;;58.13;33.57;;;;;;;;;;4978619;28;20109;-81
2021/03/10 05:01:22;;;;;;;59.70;32.37;;;;;;;;;;4976055;28;20348;-81
2021/03/10 05:03:47;;;;;;;60.90;35.07;;;;;;;;;;4979310;28;20284;-82
2021/03/10 05:06:12;;;;;;;59.67;32.65;;;;;;;;;;4966695;28;20265;-81
2021/03/10 05:08:37;;;;;;;52.93;30.03;;;;;;;;;;4970036;28;20030;-82
2021/03/10 05:11:03;;;;;;;56.35;33.00;;;;;;;;;;4974334;28;20045;-78
2021/03/10 05:13:28;;;;;;;57.90;33.33;;;;;;;;;;4949200;28;20031;-80
2021/03/10 05:15:53;;;;;;;60.60;31.90;;;;;;;;;;4975162;28;20058;-81
2021/03/10 05:18:18;;;;;;;59.43;31.23;;;;;;;;;;4976127;28;20023;-81
2021/03/10 05:20:43;;;;;;;54.37;30.73;;;;;;;;;;4973504;28;20201;-80
2021/03/10 05:23:09;;;;;;;48.93;30.20;;;;;;;;;;4956045;28;20271;-80
2021/03/10 05:25:34;;;;;;;52.97;29.53;;;;;;;;;;4977168;28;20259;-81
2021/03/10 05:27:59;;;;;;;51.88;29.98;;;;;;;;;;4968471;28;20439;-80
2021/03/10 05:30:24;;;;;;;56.80;32.00;;;;;;;;;;4963602;28;20022;-80
2021/03/10 05:32:49;;;;;;;56.07;32.20;;;;;;;;;;4970925;28;20034;-80
2021/03/10 05:35:14;;;;;;;51.17;29.20;;;;;;;;;;4953385;28;20296;-80
2021/03/10 05:37:41;;;;;;;57.25;29.15;;;;;;;;;;4949880;28;20315;-79
2021/03/10 05:40:06;;;;;;;55.28;29.33;;;;;;;;;;4967595;28;20039;-79
2021/03/10 05:42:31;;;;;;;53.15;28.77;;;;;;;;;;4969806;28;20023;-80
2021/03/10 05:44:56;;;;;;;51.43;28.50;;;;;;;;;;4950201;28;20463;-80
2021/03/10 05:47:22;;;;;;;53.53;28.30;;;;;;;;;;4966586;28;20047;-80
2021/03/10 05:49:48;;;;;;;54.27;28.07;;;;;;;;;;4958022;28;20039;-80
2021/03/10 05:52:14;;;;;;;51.45;28.67;;;;;;;;;;4968724;28;20019;-80
2021/03/10 05:54:41;;;;;;;50.50;28.92;;;;;;;;;;4964970;28;20359;-81
2021/03/10 05:57:07;;;;;;;50.03;30.15;;;;;;;;;;4960868;28;20041;-80
2021/03/10 05:59:32;;;;;;;51.60;29.08;;;;;;;;;;4966392;28;20027;-81
2021/03/10 06:01:57;;;;;;;52.28;28.65;;;;;;;;;;4951550;28;20041;-82
2021/03/10 06:04:24;;;;;;;57.30;27.43;;;;;;;;;;4975600;28;20019;-83
2021/03/10 06:06:49;;;;;;;49.25;28.67;;;;;;;;;;4982288;28;20260;-82
2021/03/10 06:09:15;;;;;;;53.53;29.30;;;;;;;;;;4964357;28;20085;-82
2021/03/10 06:11:57;;;;;;;57.45;28.40;;;;;;;;;;4959549;28;20102;-83
2021/03/10 06:14:22;;;;;;;45.30;26.92;;;;;;;;;;4959440;28;20029;-81
2021/03/10 06:16:48;;;;;;;52.50;31.20;;;;;;;;;;4965798;28;20022;-80
2021/03/10 06:19:13;;;;;;;47.13;30.55;;;;;;;;;;4952790;28;20762;-81
2021/03/10 06:21:48;;;;;;;56.17;33.35;;;;;;;;;;4957672;28;20079;-81
2021/03/10 06:24:13;;;;;;;51.50;30.88;;;;;;;;;;4956045;28;20556;-81
2021/03/10 06:26:39;;;;;;;54.50;32.93;;;;;;;;;;4971736;28;20113;-83
2021/03/10 06:29:13;;;;;;;63.53;34.93;;;;;;;;;;4975334;28;20285;-81
2021/03/10 06:31:39;;;;;;;57.67;33.88;;;;;;;;;;4969997;28;20065;-81
2021/03/10 06:34:05;;;;;;;57.35;34.28;;;;;;;;;;4967217;28;20055;-81
2021/03/10 06:36:34;;;;;;;63.17;35.72;;;;;;;;;;4963700;28;20023;-81
2021/03/10 06:38:59;;;;;;;63.13;34.28;;;;;;;;;;4972439;28;20443;-81
2021/03/10 06:41:28;;;;;;;62.25;35.75;;;;;;;;;;4958118;28;20037;-82
2021/03/10 06:43:53;;;;;;;66.97;36.25;;;;;;;;;;4958139;28;20050;-82
2021/03/10 06:46:19;;;;;;;60.23;37.13;;;;;;;;;;4959213;28;20033;-83
2021/03/10 06:48:51;;;;;;;60.17;36.58;;;;;;;;;;4975141;28;20133;-82
2021/03/10 06:51:16;;;;;;;62.28;36.88;;;;;;;;;;4973945;28;20019;-82
2021/03/10 06:53:42;;;;;;;61.07;35.17;;;;;;;;;;4988873;28;20030;-81
2021/03/10 06:56:16;;;;;;;58.67;34.83;;;;;;;;;;4992368;28;20276;-82
2021/03/10 06:58:41;;;;;;;62.78;35.15;;;;;;;;;;4977357;28;20260;-82
2021/03/10 07:01:06;;;;;;;67.83;36.10;;;;;;;;;;4973163;28;20797;-82
2021/03/10 07:03:47;;;;;;;62.63;34.83;;;;;;;;;;4975067;28;20303;-82
2021/03/10 07:06:14;;;;;;;57.45;32.58;;;;;;;;;;4972105;28;20024;-82
2021/03/10 07:08:40;;;;;;;57.85;33.88;;;;;;;;;;4972778;28;20034;-82
2021/03/10 07:11:06;;;;;;;66.63;34.97;;;;;;;;;;4951911;28;20022;-81
2021/03/10 07:13:33;;;;;;;58.83;33.13;;;;;;;;;;4969235;28;20027;-83
2021/03/10 07:15:58;;;;;;;57.63;31.98;;;;;;;;;;4959312;28;20046;-81
2021/03/10 07:18:25;;;;;;;60.47;32.03;;;;;;;;;;4962813;28;20022;-78
2021/03/10 07:20:56;;;;;;;66.43;33.35;;;;;;;;;;4975845;28;20301;-85
2021/03/10 07:23:28;;;;;;;58.30;33.78;;;;;;;;;;4972257;28;20094;-85
2021/03/10 07:26:16;;;;;;;57.08;33.13;;;;;;;;;;4974525;28;20035;-83
2021/03/10 07:29:08;;;;;;;60.30;35.03;;;;;;;;;;4966677;28;20053;-85
2021/03/10 07:31:33;;;;;;;63.95;35.25;;;;;;;;;;4955975;28;20555;-80
2021/03/10 07:37:11;;;;;;;62.42;34.42;;;;;;;;;;4973371;28;20095;-79
2021/03/10 07:39:41;;;;;;;53.72;33.13;;;;;;;;;;4968894;28;20034;-82
2021/03/10 07:42:11;;;;;;;59.63;32.05;;;;;;;;;;4973371;28;20031;-83
2021/03/10 07:47:56;;;;;;;50.67;29.65;;;;;;;;;;4970901;28;20053;-84
2021/03/10 07:50:56;;;;;;;55.13;31.75;;;;;;;;;;4979050;28;20034;-84
2021/03/10 07:53:21;;;;;;;55.97;29.58;;;;;;;;;;4977452;28;20038;-82
2021/03/10 07:56:08;;;;;;;57.97;28.93;;;;;;;;;;4983001;28;20024;-83
2021/03/10 07:58:53;;;;;;;62.47;30.30;;;;;;;;;;4972797;28;20108;-82
2021/03/10 08:01:21;;;;;;;55.30;29.67;;;;;;;;;;4963513;28;20050;-82
2021/03/10 08:03:48;;;;;;;64.55;30.25;;;;;;;;;;4956967;28;20445;-82
2021/03/10 08:06:39;;;;;;;52.08;28.88;;;;;;;;;;4973857;28;20035;-81
2021/03/10 08:09:04;;;;;;;59.95;30.77;;;;;;;;;;4962780;28;20026;-82
2021/03/10 08:11:34;;;;;;;52.90;29.75;;;;;;;;;;4961849;28;20019;-79
2021/03/10 08:14:00;;;;;;;53.72;29.00;;;;;;;;;;4976175;28;20046;-85
2021/03/10 08:16:25;;;;;;;49.10;28.25;;;;;;;;;;4964370;28;20026;-83
2021/03/10 08:19:22;;;;;;;54.45;32.05;;;;;;;;;;4968375;28;20039;-83
2021/03/10 08:22:08;;;;;;;47.63;30.23;;;;;;;;;;4970612;28;20240;-81
2021/03/10 08:24:56;;;;;;;51.25;28.48;;;;;;;;;;4978693;28;20026;-83
2021/03/10 08:27:40;;;;;;;53.20;30.00;;;;;;;;;;4931145;28;20284;-81
2021/03/10 08:30:07;;;;;;;47.92;28.27;;;;;;;;;;4977513;28;20026;-83
2021/03/10 08:32:33;;;;;;;65.50;30.20;;;;;;;;;;4976995;28;20482;-80
2021/03/10 08:35:10;;;;;;;49.88;28.95;;;;;;;;;;4959314;28;20050;-81
2021/03/10 08:37:36;;;;;;;52.97;29.33;;;;;;;;;;4966505;28;20027;-81
2021/03/10 08:40:10;;;;;;;47.53;28.05;;;;;;;;;;4972530;28;20042;-81
2021/03/10 08:42:36;;;;;;;62.97;28.98;;;;;;;;;;4972298;28;20054;-81
2021/03/10 08:45:07;;;;;;;56.75;29.98;;;;;;;;;;4960778;28;20026;-81
2021/03/10 08:47:37;;;;;;;59.42;30.15;;;;;;;;;;4973686;28;20042;-81
2021/03/10 08:50:02;;;;;;;48.83;29.45;;;;;;;;;;4959670;28;20569;-81
2021/03/10 08:52:28;;;;;;;53.13;28.27;;;;;;;;;;4968766;28;20038;-81
2021/03/10 08:54:54;;;;;;;48.50;28.17;;;;;;;;;;4972199;28;20015;-81
2021/03/10 08:57:21;;;;;;;48.25;27.75;;;;;;;;;;4954928;28;20028;-81
2021/03/10 08:59:46;;;;;;;53.45;28.80;;;;;;;;;;4976736;28;20023;-81
2021/03/10 09:02:12;;;;;;;46.45;27.15;;;;;;;;;;4967855;28;20031;-81
2021/03/10 09:04:42;;;;;;;57.60;27.77;;;;;;;;;;4968883;28;20102;-81
2021/03/10 09:07:07;;;;;;;54.47;26.70;;;;;;;;;;4953783;28;20027;-81
2021/03/10 09:09:33;;;;;;;47.70;25.75;;;;;;;;;;4959596;28;20119;-81
2021/03/10 09:11:59;;;;;;;45.25;26.35;;;;;;;;;;4988841;28;20026;-81
2021/03/10 09:14:24;;;;;;;42.47;25.58;;;;;;;;;;4973744;28;20030;-81
2021/03/10 09:16:50;;;;;;;43.63;24.98;;;;;;;;;;4973214;28;20023;-81
2021/03/10 09:19:15;;;;;;;47.40;26.15;;;;;;;;;;4970882;28;20027;-81
2021/03/10 09:21:41;;;;;;;44.05;23.95;;;;;;;;;;4956466;28;20110;-81
2021/03/10 09:24:06;;;;;;;40.88;22.92;;;;;;;;;;4972155;28;20054;-81
2021/03/10 09:26:38;;;;;;;40.60;22.67;;;;;;;;;;4976456;28;20030;-81
2021/03/10 09:29:04;;;;;;;37.72;23.38;;;;;;;;;;4953652;28;20039;-82
2021/03/10 09:31:29;;;;;;;44.83;25.30;;;;;;;;;;4955121;28;20022;-81
2021/03/10 09:33:57;;;;;;;40.92;22.13;;;;;;;;;;4956304;28;20167;-82
2021/03/10 09:36:23;;;;;;;43.55;22.17;;;;;;;;;;4967676;28;20019;-81
2021/03/10 09:38:51;;;;;;;38.75;21.45;;;;;;;;;;4969890;28;20168;-81
2021/03/10 09:41:22;;;;;;;38.00;19.70;;;;;;;;;;4975373;28;20027;-80
2021/03/10 09:43:47;;;;;;;37.35;20.80;;;;;;;;;;4965794;28;20037;-80
2021/03/10 09:46:12;;;;;;;36.10;19.23;;;;;;;;;;4951472;28;20026;-80
2021/03/10 09:48:39;;;;;;;33.90;20.13;;;;;;;;;;4957936;28;20059;-80
2021/03/10 09:51:06;;;;;;;31.85;19.35;;;;;;;;;;4955000;28;20027;-80
2021/03/10 09:53:33;;;;;;;32.33;19.65;;;;;;;;;;4970746;28;20030;-80
2021/03/10 09:56:04;;;;;;;36.80;19.02;;;;;;;;;;4972172;28;20419;-80
2021/03/10 09:58:30;;;;;;;37.30;19.42;;;;;;;;;;4968470;28;20014;-80
2021/03/10 10:00:59;;;;;;;35.00;21.07;;;;;;;;;;4956896;28;20023;-80
2021/03/10 10:03:25;;;;;;;27.83;18.60;;;;;;;;;;4953798;28;20265;-80
2021/03/10 10:05:50;;;;;;;33.08;19.00;;;;;;;;;;4972446;28;20023;-80
2021/03/10 10:08:15;;;;;;;28.43;17.57;;;;;;;;;;4958691;28;20007;-80
2021/03/10 10:10:41;;;;;;;32.88;18.23;;;;;;;;;;4970765;28;20351;-80
2021/03/10 10:13:06;;;;;;;29.77;17.83;;;;;;;;;;4974383;28;20026;-80
2021/03/10 10:15:33;;;;;;;31.02;16.92;;;;;;;;;;4956520;28;20039;-81
2021/03/10 10:17:59;;;;;;;37.33;19.35;;;;;;;;;;4959086;28;20037;-81
2021/03/10 10:20:30;;;;;;;28.77;18.10;;;;;;;;;;4975936;28;20105;-82
2021/03/10 10:22:55;;;;;;;32.08;18.25;;;;;;;;;;4958166;28;20146;-79
2021/03/10 10:25:21;;;;;;;29.87;16.27;;;;;;;;;;4975704;28;20058;-80
2021/03/10 10:27:47;;;;;;;34.58;17.42;;;;;;;;;;4981154;28;20544;-79
2021/03/10 10:30:14;;;;;;;30.50;17.58;;;;;;;;;;4968075;28;20023;-83
2021/03/10 10:32:42;;;;;;;26.80;16.10;;;;;;;;;;4954164;28;20022;-81
2021/03/10 10:35:15;;;;;;;31.80;16.48;;;;;;;;;;4969784;28;20042;-81
2021/03/10 10:37:40;;;;;;;28.88;14.95;;;;;;;;;;4963560;28;20098;-79
2021/03/10 10:40:13;;;;;;;32.60;15.35;;;;;;;;;;4951044;28;20058;-79
2021/03/10 10:42:38;;;;;;;26.00;15.93;;;;;;;;;;4965786;28;20126;-79
2021/03/10 10:45:07;;;;;;;31.13;15.57;;;;;;;;;;4964415;28;20511;-79
2021/03/10 10:47:33;;;;;;;29.60;17.02;;;;;;;;;;4958352;28;20054;-81
2021/03/10 10:50:00;;;;;;;32.72;17.70;;;;;;;;;;4958190;28;20030;-82
2021/03/10 10:52:25;;;;;;;27.85;16.50;;;;;;;;;;4959664;28;20033;-81
2021/03/10 10:54:50;;;;;;;32.83;16.10;;;;;;;;;;4974013;28;20101;-81
2021/03/10 10:57:15;;;;;;;26.40;14.60;;;;;;;;;;4955148;28;20273;-81
2021/03/10 10:59:41;;;;;;;25.40;14.02;;;;;;;;;;4955969;28;20042;-82
2021/03/10 11:02:06;;;;;;;31.80;16.17;;;;;;;;;;4969593;28;20030;-80
2021/03/10 11:04:32;;;;;;;28.88;16.48;;;;;;;;;;4967977;28;20285;-82
2021/03/10 11:07:18;;;;;;;30.13;16.92;;;;;;;;;;4956921;28;20059;-82
2021/03/10 11:09:43;;;;;;;28.67;17.23;;;;;;;;;;4956576;28;20019;-82
2021/03/10 11:12:11;;;;;;;29.48;15.98;;;;;;;;;;4973463;28;20111;-82
2021/03/10 11:14:36;;;;;;;31.55;16.38;;;;;;;;;;4970738;28;20693;-81
2021/03/10 11:17:02;;;;;;;30.80;15.40;;;;;;;;;;4952757;28;20027;-82
2021/03/10 11:19:27;;;;;;;25.42;14.88;;;;;;;;;;4973349;28;20023;-82
2021/03/10 11:21:52;;;;;;;29.80;16.70;;;;;;;;;;4963300;28;20034;-82
2021/03/10 11:24:18;;;;;;;28.33;15.57;;;;;;;;;;4961269;28;20287;-82
2021/03/10 11:26:43;;;;;;;33.67;15.63;;;;;;;;;;4966312;28;20272;-83
2021/03/10 11:29:09;;;;;;;27.92;15.43;;;;;;;;;;4975678;28;20154;-83
2021/03/10 11:31:34;;;;;;;28.30;15.25;;;;;;;;;;5138138;23;20058;-82
2021/03/10 11:34:00;;;;;;;27.48;16.20;;;;;;;;;;4998831;28;20031;-82
2021/03/10 11:36:28;;;;;;;32.17;16.23;;;;;;;;;;4973741;28;20022;-82
2021/03/10 11:38:53;;;;;;;26.98;14.57;;;;;;;;;;4995381;28;20466;-83
2021/03/10 11:41:18;;;;;;;25.45;14.25;;;;;;;;;;5020146;28;20030;-83
2021/03/10 11:43:44;;;;;;;25.60;14.73;;;;;;;;;;5005070;28;20082;-83
2021/03/10 11:46:09;;;;;;;27.50;15.40;;;;;;;;;;5015911;28;20280;-83
2021/03/10 11:48:34;;;;;;;31.20;16.42;;;;;;;;;;4995734;28;20262;-83
2021/03/10 11:51:02;;;;;;;28.20;15.80;;;;;;;;;;4999598;28;20051;-82
2021/03/10 11:53:27;;;;;;;26.30;16.02;;;;;;;;;;4976476;28;20347;-82
2021/03/10 11:55:52;;;;;;;32.07;16.93;;;;;;;;;;4995655;28;20057;-82
2021/03/10 11:58:19;;;;;;;25.08;15.90;;;;;;;;;;4977502;28;20019;-82
2021/03/10 12:00:44;;;;;;;34.33;15.88;;;;;;;;;;4994691;28;20046;-82
2021/03/10 12:03:09;;;;;;;27.87;15.93;;;;;;;;;;4979237;28;20789;-82
2021/03/10 12:05:34;;;;;;;27.07;15.90;;;;;;;;;;4978427;28;20021;-82
2021/03/10 12:08:00;;;;;;;31.90;16.53;;;;;;;;;;4978859;28;20057;-82
2021/03/10 12:10:25;;;;;;;28.17;16.23;;;;;;;;;;4976480;28;20292;-82
2021/03/10 12:12:50;;;;;;;25.60;14.20;;;;;;;;;;4991076;28;20110;-82
2021/03/10 12:15:16;;;;;;;27.00;14.50;;;;;;;;;;4996655;28;20030;-82
2021/03/10 12:17:41;;;;;;;25.42;14.10;;;;;;;;;;5006310;28;20260;-83
2021/03/10 12:20:07;;;;;;;28.70;15.75;;;;;;;;;;4971905;28;20026;-83
2021/03/10 12:22:32;;;;;;;26.55;15.00;;;;;;;;;;4988467;28;20030;-83
2021/03/10 12:24:57;;;;;;;29.60;14.23;;;;;;;;;;4992036;28;20446;-82
2021/03/10 12:27:24;;;;;;;27.77;15.30;;;;;;;;;;4980834;28;20141;-82
2021/03/10 12:29:55;;;;;;;26.83;16.02;;;;;;;;;;4990405;28;20077;-82
2021/03/10 12:32:39;;;;;;;26.23;14.52;;;;;;;;;;4973361;28;20061;-82
2021/03/10 12:35:04;;;;;;;26.27;16.38;;;;;;;;;;4976863;28;20030;-82
2021/03/10 12:37:44;;;;;;;29.10;14.77;;;;;;;;;;4998737;28;20014;-83
2021/03/10 12:40:09;;;;;;;26.65;14.18;;;;;;;;;;5003653;28;20444;-83
2021/03/10 12:42:36;;;;;;;27.60;15.82;;;;;;;;;;4980308;28;20030;-84
2021/03/10 12:45:07;;;;;;;29.65;14.85;;;;;;;;;;4982800;28;20026;-84
2021/03/10 12:47:33;;;;;;;23.23;14.05;;;;;;;;;;5002129;28;20026;-84
2021/03/10 12:50:21;;;;;;;27.17;15.30;;;;;;;;;;4994716;28;20035;-84
2021/03/10 12:53:09;;;;;;;30.80;16.13;;;;;;;;;;4962607;28;20041;-84
2021/03/10 12:55:48;;;;;;;24.23;13.30;;;;;;;;;;4973245;28;20026;-84
2021/03/10 12:58:13;;;;;;;25.10;13.43;;;;;;;;;;4986509;28;20757;-85
2021/03/10 13:00:39;;;;;;;31.77;14.97;;;;;;;;;;4986424;28;20034;-85
2021/03/10 13:03:05;;;;;;;21.73;11.95;;;;;;;;;;4990931;28;20260;-84
2021/03/10 13:05:45;;;;;;;28.92;13.52;;;;;;;;;;5003524;28;20152;-86
2021/03/10 13:08:10;;;;;;;24.33;12.90;;;;;;;;;;4998216;28;20151;-84
2021/03/10 13:10:35;;;;;;;19.77;10.32;;;;;;;;;;4995062;28;20034;-84
2021/03/10 13:13:00;;;;;;;29.10;14.23;;;;;;;;;;4979580;28;20035;-83
2021/03/10 13:15:25;;;;;;;25.20;14.27;;;;;;;;;;4996022;28;20256;-83
2021/03/10 13:17:51;;;;;;;28.75;14.55;;;;;;;;;;4993263;28;20030;-83
2021/03/10 13:20:16;;;;;;;27.85;13.02;;;;;;;;;;4985771;28;20036;-84
2021/03/10 13:22:42;;;;;;;27.52;13.93;;;;;;;;;;4976007;28;20057;-84
2021/03/10 13:25:08;;;;;;;31.00;14.77;;;;;;;;;;4991510;28;20023;-83
2021/03/10 13:27:33;;;;;;;27.17;13.27;;;;;;;;;;4989883;28;20026;-82
2021/03/10 13:29:58;;;;;;;35.80;15.02;;;;;;;;;;4986273;28;20157;-82
2021/03/10 13:32:24;;;;;;;26.43;14.60;;;;;;;;;;4993496;28;20038;-82
2021/03/10 13:34:49;;;;;;;29.98;15.27;;;;;;;;;;4969540;28;20276;-83
2021/03/10 13:37:14;;;;;;;33.23;15.83;;;;;;;;;;4994108;28;20042;-83
2021/03/10 13:39:39;;;;;;;26.25;14.45;;;;;;;;;;4987626;28;20265;-85
2021/03/10 13:42:05;;;;;;;29.38;15.80;;;;;;;;;;5000784;28;20022;-84
2021/03/10 13:44:30;;;;;;;24.65;14.85;;;;;;;;;;4971794;28;20113;-83
2021/03/10 13:46:55;;;;;;;32.23;14.53;;;;;;;;;;4995909;28;20045;-84
2021/03/10 13:49:20;;;;;;;28.30;15.57;;;;;;;;;;4977385;28;20307;-84
2021/03/10 13:51:45;;;;;;;28.83;15.17;;;;;;;;;;4996200;28;20347;-84
2021/03/10 13:54:11;;;;;;;31.63;15.40;;;;;;;;;;4977688;28;20083;-83
2021/03/10 13:56:36;;;;;;;29.20;15.77;;;;;;;;;;4987035;28;20279;-83
2021/03/10 13:59:02;;;;;;;28.20;15.33;;;;;;;;;;4982016;28;20031;-84
2021/03/10 14:01:27;;;;;;;28.50;15.65;;;;;;;;;;4990330;28;20262;-84
2021/03/10 14:03:52;;;;;;;32.07;15.57;;;;;;;;;;4988588;28;20034;-85
2021/03/10 14:06:20;;;;;;;35.38;17.17;;;;;;;;;;4974824;28;20034;-84
2021/03/10 14:08:46;;;;;;;27.40;15.43;;;;;;;;;;4983616;28;20439;-85
2021/03/10 14:11:11;;;;;;;29.07;16.53;;;;;;;;;;4985850;28;20022;-84
2021/03/10 14:13:36;;;;;;;28.47;14.93;;;;;;;;;;4999749;28;20026;-85
2021/03/10 14:16:01;;;;;;;32.03;15.23;;;;;;;;;;4981793;28;20257;-84
2021/03/10 14:18:52;;;;;;;30.38;15.90;;;;;;;;;;5004751;28;20263;-84
2021/03/10 14:21:25;;;;;;;32.35;15.90;;;;;;;;;;4935093;29;20032;-85
2021/03/10 14:23:50;;;;;;;29.27;16.33;;;;;;;;;;4945292;29;20531;-84